Hors Challenge

Le Jogging Du Cosinus - Taintignies (9.30 km)

dimanche 18 août 2019

Vous pouvez trouver Le classement original sur : http://joggingcosinus.over-blog.com/
 
LE JOGGING DU COSINUS - TAINTIGNIES
DISTANCE : 9.30 km
dimanche 18 août 2019
 
Place dos NOM Catégorie Pl/cat temps temps/km Vitesse
01:00:00              
1 4 FAVRE JENNIE-JOHN V1 1 00:34:31 03:43 16.17
2 58 LABEAU STÉPHANE V2 1 00:34:43 03:44 16.07
3 68 CARLOT RAPHAËL V1 2 00:34:57 03:45 15.97
4 75 LIEGOIS LAURENT V1 3 00:35:35 03:50 15.68
5 78 BLANPAIN PAUL SE 1 00:36:12 03:54 15.41
6 42 LAMANT JEAN-LUC V2 2 00:36:46 03:57 15.18
7 50 LORTHIOIR BENJAMIN SE 2 00:37:10 04:00 15.01
8 40 DEWAILLY VICTOR SE 3 00:38:10 04:06 14.62
9 32 MEURISSE PAUL SE 4 00:38:16 04:07 14.58
10 60 VANDEPUTTE CHRISTOPHE V1 4 00:38:17 04:07 14.58
11 87 SCOHIEZ BERNARD V2 3 00:38:35 04:09 14.46
12 5 PLACE JÉRÉMY SE 5 00:38:38 04:09 14.44
13 81 DECOBECQ BASTIEN SE 6 00:38:40 04:09 14.43
14 2 SOLDAI PATRICK V3 1 00:39:03 04:12 14.29
15 64 PETIT SIMON V1 5 00:39:15 04:13 14.22
16 27 BATAILLE MATTHIEU V1 6 00:39:25 04:14 14.16
17 63 DUPUIS ARNAUD SE 7 00:39:31 04:15 14.12
18 73 BROUX GRÉGORY V1 7 00:39:37 04:16 14.08
19 15 BEN RADAOUI SID-ALI SE 8 00:40:01 04:18 13.94
20 24 GAILLET CHRISTOPHE V1 8 00:40:08 04:19 13.90
21 77 FONTAINE THIERRY V2 4 00:40:09 04:19 13.90
22 10 DE CUBBER MARC V3 2 00:40:31 04:21 13.77
23 17 LEMOINE SAMUEL V1 9 00:40:42 04:23 13.71
24 54 DIERYCK PASCAL V2 5 00:40:48 04:23 13.68
25 69 DE LANGHE GILLES SE 9 00:40:49 04:23 13.67
26 21 GAILLET ANTOINE EH 1 00:41:46 04:29 13.36
27 52 MALLOUDI KARIM V1 10 00:41:55 04:30 13.31
28 61 DUFRENNE QUENTIN SE 10 00:42:01 04:31 13.28
29 59 MARCQ CHRISTOPHER SE 11 00:42:13 04:32 13.22
30 34 DEBONNET JEAN EH 2 00:42:16 04:33 13.20
31 272 DELABY MATHÉO EH 3 00:42:18 04:33 13.19
32 72 QUARRE MICHAEL V1 11 00:42:29 04:34 13.13
33 38 WYSEUR JEANNE ED 1 00:42:35 04:35 13.10
34 51 DEMETS BERNARD V1 12 00:42:38 04:35 13.09
35 57 LUBREZ JEAN-FRANÇOIS V1 13 00:42:56 04:37 13.00
36 91 LEFEBVRE ALEXANDRE SE 12 00:43:14 04:39 12.91
37 53 CLINQUART ALAIN V1 14 00:43:52 04:43 12.72
38 85 VERPEUT VALENTIN SE 13 00:44:12 04:45 12.62
39 86 DEUAERE MARINE DA 1 00:44:13 04:45 12.62
40 76 DEBAISIEUX SERGE V3 3 00:44:27 04:47 12.55
41 65 CLINQUART GILLES SE 14 00:45:01 04:50 12.40
42 29 LECLERCQ BENOÎT V1 15 00:45:02 04:51 12.39
43 66 DERRIEN CHRISTOPHE SE 15 00:45:18 04:52 12.32
44 20 LECLERCQ EDDY V3 4 00:45:47 04:55 12.19
45 82 GRIMONPRE FRANÇOIS SE 16 00:45:54 04:56 12.16
46 33 CASSE HENRI V2 6 00:45:59 04:57 12.13
47 70 EMARE ABEL V2 7 00:46:21 04:59 12.04
48 56 ANDRIEN MICHAEL V1 16 00:46:40 05:01 11.96
49 45 MEURIST JOËL V1 17 00:46:45 05:02 11.94
50 8 DEWULF GRÉGORY V2 8 00:46:47 05:02 11.93
51 26 MAHIEZ DAVID V1 18 00:46:48 05:02 11.92
52 6 BILLIET FABRICE V2 9 00:46:55 05:03 11.89
53 7 BACRO ANTOINE SE 17 00:46:56 05:03 11.89
54 12 VANOVERSKELDS DOMINIQUE V2 10 00:46:57 05:03 11.88
55 39 DE NEVE FABRICE V1 19 00:47:05 05:04 11.85
56 55 LEMAITRE MICHEL V2 11 00:47:09 05:04 11.83
57 19 VANAERDE CHARLOTTE DA 2 00:47:18 05:05 11.80
58 22 SANTY RUDY V2 12 00:47:19 05:05 11.79
59 48 MOULIN EDDY V1 20 00:47:24 05:06 11.77
60 46 UYSTEPRUYST CHRISTOPHE V1 21 00:47:52 05:09 11.66
61 14 VAN DURMEN CHRISTOPHE V2 13 00:47:53 05:09 11.65
62 43 BRAQUENIER BENOÎT V1 22 00:48:00 05:10 11.63
63 74 MULNARD DAMIEN SE 18 00:48:27 05:13 11.52
64 44 BATAILLE CLAUDE V4 1 00:49:28 05:19 11.28
65 13 DE CUBBER JACQUES V2 14 00:49:31 05:19 11.27
66 287 DUHEM EDDY SE 19 00:49:34 05:20 11.26
67 80 MINGNEAU SÉBASTIEN SE 20 00:49:37 05:20 11.25
68 83 HENNEUSE JOËL V2 15 00:49:41 05:21 11.23
69 84 VAN HEE OLIVIER V2 16 00:49:48 05:21 11.20
70 49 DECUBBER THOMAS SE 21 00:50:02 05:23 11.15
71 9 BEKERS NOËL V4 2 00:50:48 05:28 10.98
72 90 DECRUYENAERE FRÉDÉRIC V1 23 00:51:46 05:34 10.78
73 92 ANDRIEN GEOFFREY SE 22 00:51:58 05:35 10.74
74 41 LEMOINE CHRISTELLE A2 1 00:53:02 05:42 10.52
75 18 TERRASSE JOCELYNE A2 2 00:53:27 05:45 10.44
76 62 DE LANGHE BRUNO V3 5 00:53:29 05:45 10.43
77 25 DEPELCHIN ANNE-CÉCILE A1 1 00:53:47 05:47 10.37
78 30 DECLERCQ ANNE-SOPHIE A2 3 00:54:19 05:50 10.27
79 1 DUPRET DIDIER V2 17 00:54:20 05:51 10.27
80 28 DE CLERCQ MARION DA 3 00:54:43 05:53 10.20
81 89 LEROY AUDE V1 24 00:54:45 05:53 10.19
82 88 SCOHIEZ MÉLANIE DA 4 00:55:00 05:55 10.15
83 36 LAMBRIX CLAUDINE A2 4 00:55:15 05:56 10.10
84 37 DEBAISIEUX BÉNÉDICTE A2 5 00:56:22 06:04 9.90
85 3 DE CONINCK HUBERT V1 25 00:57:02 06:08 9.78
86 23 VAN NESTE RUDY V1 26 00:57:19 06:10 9.74
87 47 GUIRCHE ALBERT V3 6 00:57:22 06:10 9.73
88 79 MOLL LAURA DA 5 00:58:00 06:14 9.62
89 35 DEBONNET CAMILLE ED 2 01:00:00 06:27 9.30
90 31 DESCORNEZ RÉGINE A2 6 01:02:23 06:42 8.94
91 67 PEUTTE SYLVIE A2 7 01:04:42 06:57 8.62
92 11 HELIN VÉRONIQUE A3 1 01:04:43 06:58 8.62
93 71 DELFOSSE VÉRONIQUE A2 8 01:04:44 06:58 8.62